createdAt,value
2022-09-25T00:01:03.941Z,6.79
2022-09-25T00:03:46.588Z,6.72
2022-09-25T00:06:21.506Z,6.69
2022-09-25T00:08:54.251Z,6.64
2022-09-25T00:11:31.759Z,6.61
2022-09-25T00:14:05.451Z,6.44
2022-09-25T00:16:38.233Z,6.48
2022-09-25T00:19:31.090Z,6.56
2022-09-25T00:22:03.578Z,6.46
2022-09-25T00:24:37.207Z,6.41
2022-09-25T00:27:10.101Z,6.34
2022-09-25T00:29:44.255Z,6.34
2022-09-25T00:32:16.863Z,6.38
2022-09-25T00:34:49.583Z,6.38
2022-09-25T00:37:22.595Z,6.40
2022-09-25T00:39:55.449Z,6.39
2022-09-25T00:42:28.507Z,6.41
2022-09-25T00:45:02.768Z,6.40
2022-09-25T00:47:46.767Z,6.38
2022-09-25T00:50:47.758Z,6.36
2022-09-25T00:53:31.775Z,6.33
2022-09-25T00:56:05.685Z,6.31
2022-09-25T00:58:40.694Z,6.27
2022-09-25T01:01:14.575Z,6.19
2022-09-25T01:03:46.995Z,6.18
2022-09-25T01:06:20.626Z,6.16
2022-09-25T01:08:53.910Z,6.14
2022-09-25T01:11:26.925Z,6.21
2022-09-25T01:14:03.345Z,6.21
2022-09-25T01:17:25.508Z,6.20
2022-09-25T01:20:24.843Z,6.15
2022-09-25T01:23:15.633Z,6.00
2022-09-25T01:26:12.481Z,5.88
2022-09-25T01:29:09.235Z,5.81
2022-09-25T01:31:45.077Z,5.83
2022-09-25T01:34:35.145Z,5.69
2022-09-25T01:37:25.910Z,5.60
2022-09-25T01:40:15.741Z,5.59
2022-09-25T01:43:15.472Z,5.63
2022-09-25T01:45:53.375Z,5.55
2022-09-25T01:48:35.013Z,5.52
2022-09-25T01:51:33.235Z,5.50
2022-09-25T01:54:13.689Z,5.46
2022-09-25T01:56:51.329Z,5.47
2022-09-25T01:59:40.980Z,5.49
2022-09-25T02:02:19.686Z,5.51
2022-09-25T02:05:12.627Z,5.48
2022-09-25T02:07:56.887Z,5.43
2022-09-25T02:10:47.716Z,5.46
2022-09-25T02:13:21.685Z,5.41
2022-09-25T02:15:59.656Z,5.43
2022-09-25T02:18:51.333Z,5.45
2022-09-25T02:21:47.486Z,5.36
2022-09-25T02:24:42.855Z,5.37
2022-09-25T02:27:16.338Z,5.25
2022-09-25T02:29:49.259Z,5.15
2022-09-25T02:32:31.385Z,5.24
2022-09-25T02:35:04.115Z,5.31
2022-09-25T02:37:36.889Z,5.25
2022-09-25T02:40:12.111Z,5.30
2022-09-25T02:43:17.986Z,5.29
2022-09-25T02:46:04.918Z,5.27
2022-09-25T02:49:01.175Z,5.33
2022-09-25T02:51:49.096Z,5.33
2022-09-25T02:54:55.473Z,5.43
2022-09-25T02:57:57.389Z,5.37
2022-09-25T03:00:31.704Z,5.60
2022-09-25T03:03:06.621Z,5.67
2022-09-25T03:05:40.265Z,5.62
2022-09-25T03:08:31.778Z,5.66
2022-09-25T03:11:05.642Z,5.69
2022-09-25T03:13:38.812Z,5.68
2022-09-25T03:16:13.835Z,5.72
2022-09-25T03:18:46.723Z,5.77
2022-09-25T03:21:19.392Z,5.74
2022-09-25T03:23:52.107Z,5.79
2022-09-25T03:26:25.280Z,5.76
2022-09-25T03:29:03.131Z,5.75
2022-09-25T03:31:36.454Z,5.73
2022-09-25T03:34:09.255Z,5.71
2022-09-25T03:36:42.447Z,5.70
2022-09-25T03:39:18.260Z,5.69
2022-09-25T03:41:50.826Z,5.61
2022-09-25T03:44:23.611Z,5.63
2022-09-25T03:46:56.814Z,5.59
2022-09-25T03:49:29.480Z,5.68
2022-09-25T03:52:02.355Z,5.75
2022-09-25T03:54:34.903Z,5.81
2022-09-25T03:57:07.535Z,5.86
2022-09-25T03:59:40.290Z,5.84
2022-09-25T04:02:13.647Z,5.89
2022-09-25T04:04:46.291Z,5.82
2022-09-25T04:07:18.956Z,5.73
2022-09-25T04:09:51.463Z,5.64
2022-09-25T04:12:23.900Z,5.76
2022-09-25T04:14:57.463Z,5.77
2022-09-25T04:17:30.112Z,5.66
2022-09-25T04:20:02.668Z,5.72
2022-09-25T04:22:39.750Z,5.65
2022-09-25T04:25:12.570Z,5.75
2022-09-25T04:27:45.947Z,5.74
2022-09-25T04:30:18.713Z,5.83
2022-09-25T04:33:09.473Z,5.87
2022-09-25T04:35:43.007Z,5.91
2022-09-25T04:38:15.853Z,5.94
2022-09-25T04:40:53.136Z,5.95
2022-09-25T04:43:27.152Z,5.96
2022-09-25T04:46:04.361Z,5.99
2022-09-25T04:48:37.520Z,5.94
2022-09-25T04:51:10.245Z,6.02
2022-09-25T04:53:43.572Z,6.03
2022-09-25T04:56:17.199Z,5.97
2022-09-25T04:58:51.351Z,6.01
2022-09-25T05:01:24.674Z,6.14
2022-09-25T05:03:57.358Z,6.17
2022-09-25T05:06:30.144Z,6.25
2022-09-25T05:09:04.003Z,6.32
2022-09-25T05:11:36.589Z,6.40
2022-09-25T05:14:09.560Z,6.49
2022-09-25T05:16:42.482Z,6.60
2022-09-25T05:19:15.312Z,6.72
2022-09-25T05:21:48.155Z,6.81
2022-09-25T05:24:21.346Z,6.89
2022-09-25T05:26:54.279Z,7.05
2022-09-25T05:29:27.147Z,7.18
2022-09-25T05:32:01.016Z,7.30
2022-09-25T05:34:34.035Z,7.41
2022-09-25T05:37:06.958Z,7.53
2022-09-25T05:39:40.486Z,7.64
2022-09-25T05:42:18.032Z,7.79
2022-09-25T05:44:51.114Z,7.96
2022-09-25T05:47:23.712Z,8.14
2022-09-25T05:49:56.307Z,8.34
2022-09-25T05:52:29.323Z,8.40
2022-09-25T05:55:03.873Z,8.65
2022-09-25T05:57:41.087Z,8.81
2022-09-25T06:00:15.594Z,8.97
2022-09-25T06:02:53.574Z,8.99
2022-09-25T06:05:26.299Z,8.98
2022-09-25T06:07:59.524Z,8.95
2022-09-25T06:10:32.438Z,8.89
2022-09-25T06:13:09.425Z,8.94
2022-09-25T06:15:42.796Z,9.00
2022-09-25T06:18:16.074Z,9.11
2022-09-25T06:20:49.338Z,9.16
2022-09-25T06:23:22.318Z,9.19
2022-09-25T06:25:55.191Z,9.19
2022-09-25T06:28:27.998Z,9.26
2022-09-25T06:31:03.901Z,9.27
2022-09-25T06:33:37.088Z,9.36
2022-09-25T06:36:09.956Z,9.35
2022-09-25T06:38:42.987Z,9.39
2022-09-25T06:41:15.747Z,9.42
2022-09-25T06:43:51.933Z,9.54
2022-09-25T06:46:25.524Z,9.52
2022-09-25T06:48:59.163Z,9.65
2022-09-25T06:51:36.110Z,9.71
2022-09-25T06:54:09.060Z,9.75
2022-09-25T06:56:41.990Z,9.74
2022-09-25T06:59:15.378Z,9.84
2022-09-25T07:01:48.491Z,9.84
2022-09-25T07:04:22.328Z,9.92
2022-09-25T07:06:59.335Z,9.97
2022-09-25T07:09:32.211Z,10.09
2022-09-25T07:12:06.704Z,10.19
2022-09-25T07:14:39.618Z,10.31
2022-09-25T07:17:13.098Z,10.43
2022-09-25T07:19:46.309Z,10.54
2022-09-25T07:22:19.254Z,10.64
2022-09-25T07:24:51.994Z,10.72
2022-09-25T07:27:25.570Z,10.73
2022-09-25T07:29:58.513Z,10.79
2022-09-25T07:32:32.302Z,10.86
2022-09-25T07:35:05.486Z,10.84
2022-09-25T07:37:39.022Z,10.97
2022-09-25T07:40:15.207Z,11.04
2022-09-25T07:42:47.891Z,11.04
2022-09-25T07:45:20.779Z,11.14
2022-09-25T07:47:56.803Z,11.25
2022-09-25T07:50:36.029Z,11.35
2022-09-25T07:53:10.245Z,11.41
2022-09-25T07:55:43.539Z,11.60
2022-09-25T07:58:19.984Z,11.66
2022-09-25T08:00:53.307Z,11.86
2022-09-25T08:03:26.002Z,11.96
2022-09-25T08:06:12.999Z,12.12
2022-09-25T08:08:47.321Z,12.24
2022-09-25T08:11:21.231Z,12.34
2022-09-25T08:13:55.922Z,12.42
2022-09-25T08:16:29.036Z,12.50
2022-09-25T08:19:02.526Z,12.55
2022-09-25T08:21:36.349Z,12.77
2022-09-25T08:24:09.695Z,12.87
2022-09-25T08:26:43.450Z,13.04
2022-09-25T08:29:18.888Z,13.27
2022-09-25T08:31:51.553Z,13.52
2022-09-25T08:34:41.638Z,13.79
2022-09-25T08:37:16.894Z,14.05
2022-09-25T08:39:50.809Z,14.18
2022-09-25T08:42:30.496Z,14.33
2022-09-25T08:45:27.476Z,14.40
2022-09-25T08:48:20.383Z,14.67
2022-09-25T08:50:55.056Z,14.78
2022-09-25T08:53:28.857Z,14.88
2022-09-25T08:56:19.742Z,14.99
2022-09-25T08:59:07.966Z,15.12
2022-09-25T09:01:55.164Z,15.18
2022-09-25T09:04:39.114Z,15.22
2022-09-25T09:07:27.944Z,15.24
2022-09-25T09:11:10.062Z,15.25
2022-09-25T09:13:50.447Z,15.24
2022-09-25T09:16:40.314Z,15.30
2022-09-25T09:19:14.654Z,15.33
2022-09-25T09:22:13.194Z,15.36
2022-09-25T09:25:19.534Z,15.39
2022-09-25T09:28:27.371Z,15.44
2022-09-25T09:31:14.923Z,15.46
2022-09-25T09:34:18.522Z,15.45
2022-09-25T09:37:07.285Z,15.55
2022-09-25T09:39:55.643Z,15.59
2022-09-25T09:42:44.678Z,15.56
2022-09-25T09:45:30.136Z,15.68
2022-09-25T09:48:29.544Z,15.73
2022-09-25T09:51:18.295Z,15.73
2022-09-25T09:53:58.203Z,15.84
2022-09-25T09:56:36.346Z,15.86
2022-09-25T09:59:35.288Z,15.92
2022-09-25T10:02:42.540Z,16.06
2022-09-25T10:05:48.010Z,16.06
2022-09-25T10:08:21.182Z,16.17
2022-09-25T10:10:59.700Z,16.11
2022-09-25T10:13:40.915Z,16.21
2022-09-25T10:16:23.606Z,16.28
2022-09-25T10:19:05.763Z,16.39
2022-09-25T10:21:48.953Z,16.42
2022-09-25T10:24:59.068Z,16.45
2022-09-25T10:27:42.010Z,16.42
2022-09-25T10:30:25.343Z,16.54
2022-09-25T10:33:01.407Z,16.57
2022-09-25T10:35:47.144Z,16.61
2022-09-25T10:38:38.920Z,16.66
2022-09-25T10:41:15.968Z,16.71
2022-09-25T10:44:02.053Z,16.76
2022-09-25T10:46:56.470Z,16.80
2022-09-25T10:49:49.043Z,16.77
2022-09-25T10:52:23.185Z,16.75
2022-09-25T10:55:17.302Z,16.90
2022-09-25T10:57:52.083Z,16.93
2022-09-25T11:00:27.470Z,16.95
2022-09-25T11:03:18.460Z,16.94
2022-09-25T11:06:05.774Z,17.04
2022-09-25T11:08:45.645Z,17.10
2022-09-25T11:11:27.456Z,17.14
2022-09-25T11:14:05.481Z,17.17
2022-09-25T11:16:50.418Z,17.21
2022-09-25T11:19:38.316Z,17.27
2022-09-25T11:22:18.538Z,17.30
2022-09-25T11:25:12.541Z,17.44
2022-09-25T11:28:04.918Z,17.57
2022-09-25T11:30:51.115Z,17.66
2022-09-25T11:34:11.884Z,17.79
2022-09-25T11:37:12.856Z,17.93
2022-09-25T11:40:14.872Z,17.99
2022-09-25T11:43:00.288Z,18.03
2022-09-25T11:45:55.220Z,18.04
2022-09-25T11:48:45.386Z,18.01
2022-09-25T11:51:40.038Z,18.26
2022-09-25T11:54:36.844Z,18.33
2022-09-25T11:57:37.326Z,18.36
2022-09-25T12:00:22.474Z,18.39
2022-09-25T12:03:23.121Z,18.38
2022-09-25T12:06:14.726Z,18.32
2022-09-25T12:09:10.658Z,18.36
2022-09-25T12:11:55.098Z,18.39
2022-09-25T12:15:03.893Z,18.31
2022-09-25T12:17:36.591Z,18.31
2022-09-25T12:20:38.385Z,18.42
2022-09-25T12:23:35.951Z,18.42
2022-09-25T12:26:26.271Z,18.41
2022-09-25T12:29:16.292Z,18.39
2022-09-25T12:32:15.567Z,18.37
2022-09-25T12:35:20.076Z,18.53
2022-09-25T12:38:06.308Z,18.59
2022-09-25T12:41:04.847Z,18.56
2022-09-25T12:43:46.739Z,18.64
2022-09-25T12:46:32.721Z,18.65
2022-09-25T12:49:46.845Z,18.64
2022-09-25T12:52:32.133Z,18.60
2022-09-25T12:55:27.096Z,18.58
2022-09-25T12:58:25.969Z,18.57
2022-09-25T13:01:19.787Z,18.54
2022-09-25T13:04:19.791Z,18.53
2022-09-25T13:07:06.557Z,18.56
2022-09-25T13:09:46.895Z,18.50
2022-09-25T13:12:20.023Z,18.55
2022-09-25T13:15:04.794Z,18.56
2022-09-25T13:17:41.435Z,18.57
2022-09-25T13:20:34.460Z,18.62
2022-09-25T13:23:15.767Z,18.71
2022-09-25T13:26:04.723Z,18.83
2022-09-25T13:28:58.245Z,18.92
2022-09-25T13:31:39.639Z,18.96
2022-09-25T13:34:17.886Z,18.93
2022-09-25T13:36:52.623Z,18.88
2022-09-25T13:40:03.615Z,18.91
2022-09-25T13:42:47.818Z,19.00
2022-09-25T13:45:40.780Z,19.02
2022-09-25T13:48:16.364Z,18.98
2022-09-25T13:50:54.890Z,18.93
2022-09-25T13:53:35.028Z,18.97
2022-09-25T13:56:19.435Z,18.92
2022-09-25T13:59:22.789Z,18.86
2022-09-25T14:02:25.262Z,18.75
2022-09-25T14:04:58.770Z,18.80
2022-09-25T14:07:32.353Z,18.78
2022-09-25T14:10:08.936Z,18.87
2022-09-25T14:12:49.700Z,18.84
2022-09-25T14:15:30.126Z,18.93
2022-09-25T14:18:08.988Z,18.96
2022-09-25T14:20:46.631Z,18.95
2022-09-25T14:23:34.546Z,18.96
2022-09-25T14:26:22.562Z,18.91
2022-09-25T14:28:59.343Z,18.97
2022-09-25T14:32:00.815Z,18.92
2022-09-25T14:34:59.266Z,18.97
2022-09-25T14:41:02.479Z,19.00
2022-09-25T14:43:55.691Z,19.03
2022-09-25T14:46:30.382Z,19.01
2022-09-25T14:49:24.129Z,18.97
2022-09-25T14:52:04.681Z,18.90
2022-09-25T14:54:43.062Z,18.85
2022-09-25T14:57:25.442Z,18.74
2022-09-25T14:59:59.818Z,18.64
2022-09-25T15:02:42.565Z,18.64
2022-09-25T15:05:24.944Z,18.57
2022-09-25T15:08:02.735Z,18.54
2022-09-25T15:10:40.747Z,18.45
2022-09-25T15:13:19.034Z,18.36
2022-09-25T15:16:24.989Z,18.25
2022-09-25T15:19:02.554Z,18.18
2022-09-25T15:21:42.961Z,18.14
2022-09-25T15:24:28.464Z,18.08
2022-09-25T15:27:06.125Z,18.02
2022-09-25T15:29:40.538Z,17.96
2022-09-25T15:32:41.647Z,17.92
2022-09-25T15:35:20.042Z,17.85
2022-09-25T15:38:13.806Z,17.74
2022-09-25T15:40:59.171Z,17.71
2022-09-25T15:43:37.672Z,17.67
2022-09-25T15:46:13.172Z,17.66
2022-09-25T15:48:58.850Z,17.62
2022-09-25T15:51:35.000Z,17.56
2022-09-25T15:54:34.986Z,17.45
2022-09-25T15:57:13.849Z,17.40
2022-09-25T16:00:08.327Z,17.29
2022-09-25T16:03:11.821Z,17.21
2022-09-25T16:05:50.416Z,17.19
2022-09-25T16:08:38.823Z,17.14
2022-09-25T16:11:26.472Z,17.08
2022-09-25T16:14:23.976Z,17.02
2022-09-25T16:16:58.699Z,16.95
2022-09-25T16:19:33.685Z,16.83
2022-09-25T16:22:24.936Z,16.81
2022-09-25T16:24:58.199Z,16.72
2022-09-25T16:27:36.220Z,16.65
2022-09-25T16:30:22.979Z,16.55
2022-09-25T16:32:58.400Z,16.51
2022-09-25T16:36:10.244Z,16.44
2022-09-25T16:38:42.437Z,16.35
2022-09-25T16:41:22.872Z,16.27
2022-09-25T16:44:32.787Z,16.19
2022-09-25T16:47:24.431Z,16.11
2022-09-25T16:50:00.270Z,15.98
2022-09-25T16:52:36.170Z,15.98
2022-09-25T16:55:10.498Z,15.89
2022-09-25T16:57:46.098Z,15.88
2022-09-25T17:00:28.570Z,15.78
2022-09-25T17:03:03.868Z,15.66
2022-09-25T17:05:37.594Z,15.62
2022-09-25T17:08:25.666Z,15.54
2022-09-25T17:10:59.328Z,15.44
2022-09-25T17:13:34.977Z,15.36
2022-09-25T17:16:08.858Z,15.30
2022-09-25T17:18:47.710Z,15.25
2022-09-25T17:21:21.697Z,15.20
2022-09-25T17:23:58.489Z,15.16
2022-09-25T17:26:32.137Z,15.12
2022-09-25T17:29:05.550Z,15.10
2022-09-25T17:31:39.271Z,15.03
2022-09-25T17:34:30.149Z,15.05
2022-09-25T17:37:03.665Z,15.03
2022-09-25T17:39:36.912Z,15.00
2022-09-25T17:42:11.839Z,14.97
2022-09-25T17:44:48.408Z,14.90
2022-09-25T17:47:22.734Z,14.84
2022-09-25T17:49:56.360Z,14.84
2022-09-25T17:52:29.737Z,14.73
2022-09-25T17:55:04.601Z,14.77
2022-09-25T17:57:37.776Z,14.72
2022-09-25T18:00:11.044Z,14.67
2022-09-25T18:02:44.158Z,14.72
2022-09-25T18:05:21.197Z,14.71
2022-09-25T18:07:54.260Z,14.71
2022-09-25T18:10:29.755Z,14.71
2022-09-25T18:13:15.811Z,14.68
2022-09-25T18:15:58.595Z,14.57
2022-09-25T18:18:53.338Z,14.53
2022-09-25T18:21:44.980Z,14.48
2022-09-25T18:24:18.747Z,14.41
2022-09-25T18:26:55.197Z,14.40
2022-09-25T18:29:28.812Z,14.31
2022-09-25T18:32:01.556Z,14.24
2022-09-25T18:34:34.248Z,14.14
2022-09-25T18:37:06.713Z,14.08
2022-09-25T18:39:39.325Z,14.12
2022-09-25T18:42:12.177Z,14.13
2022-09-25T18:44:45.190Z,14.13
2022-09-25T18:47:18.464Z,14.04
2022-09-25T18:50:08.309Z,14.04
2022-09-25T18:52:43.385Z,14.03
2022-09-25T18:55:18.806Z,14.08
2022-09-25T18:58:13.450Z,14.11
2022-09-25T19:00:48.150Z,14.13
2022-09-25T19:03:21.457Z,14.10
2022-09-25T19:06:04.206Z,14.14
2022-09-25T19:08:37.360Z,14.20
2022-09-25T19:11:17.359Z,14.18
2022-09-25T19:13:50.293Z,14.27
2022-09-25T19:16:23.975Z,14.27
2022-09-25T19:18:57.343Z,14.33
2022-09-25T19:21:32.261Z,14.31
2022-09-25T19:24:05.359Z,14.36
2022-09-25T19:26:38.623Z,14.45
2022-09-25T19:29:11.657Z,14.47
2022-09-25T19:31:44.779Z,14.50
2022-09-25T19:34:17.864Z,14.47
2022-09-25T19:36:51.415Z,14.48
2022-09-25T19:39:24.084Z,14.47
2022-09-25T19:41:56.693Z,14.46
2022-09-25T19:44:32.632Z,14.38
2022-09-25T19:47:05.520Z,14.26
2022-09-25T19:49:38.652Z,14.35
2022-09-25T19:52:17.534Z,14.40
2022-09-25T19:54:53.171Z,14.41
2022-09-25T19:57:26.298Z,14.41
2022-09-25T20:00:01.165Z,14.42
2022-09-25T20:02:34.829Z,14.45
2022-09-25T20:05:10.238Z,14.47
2022-09-25T20:07:43.364Z,14.50
2022-09-25T20:10:16.532Z,14.48
2022-09-25T20:12:49.616Z,14.49
2022-09-25T20:15:22.645Z,14.47
2022-09-25T20:17:56.909Z,14.51
2022-09-25T20:20:33.866Z,14.49
2022-09-25T20:23:07.394Z,14.48
2022-09-25T20:25:40.067Z,14.41
2022-09-25T20:28:15.430Z,14.41
2022-09-25T20:30:48.496Z,14.43
2022-09-25T20:33:21.619Z,14.36
2022-09-25T20:35:54.985Z,14.48
2022-09-25T20:38:29.183Z,14.43
2022-09-25T20:41:06.671Z,14.51
2022-09-25T20:43:45.043Z,14.52
2022-09-25T20:46:20.030Z,14.52
2022-09-25T20:48:54.067Z,14.53
2022-09-25T20:51:32.542Z,14.53
2022-09-25T20:54:07.842Z,14.53
2022-09-25T20:56:44.343Z,14.53
2022-09-25T20:59:18.551Z,14.50
2022-09-25T21:01:52.032Z,14.44
2022-09-25T21:04:24.626Z,14.45
2022-09-25T21:06:57.247Z,14.44
2022-09-25T21:09:30.351Z,14.44
2022-09-25T21:12:06.425Z,14.45
2022-09-25T21:14:39.075Z,14.47
2022-09-25T21:17:13.675Z,14.47
2022-09-25T21:19:47.210Z,14.51
2022-09-25T21:22:20.483Z,14.52
2022-09-25T21:24:52.993Z,14.47
2022-09-25T21:27:25.356Z,14.52
2022-09-25T21:29:57.755Z,14.51
2022-09-25T21:32:31.818Z,14.48
2022-09-25T21:35:04.439Z,14.39
2022-09-25T21:37:37.085Z,14.31
2022-09-25T21:40:10.909Z,14.40
2022-09-25T21:42:43.889Z,14.35
2022-09-25T21:45:17.080Z,14.32
2022-09-25T21:47:52.216Z,14.23
2022-09-25T21:50:24.989Z,14.29
2022-09-25T21:52:58.393Z,14.34
2022-09-25T21:55:32.244Z,14.35
2022-09-25T21:58:05.233Z,14.34
2022-09-25T22:00:38.109Z,14.40
2022-09-25T22:03:10.906Z,14.41
2022-09-25T22:05:44.251Z,14.42
2022-09-25T22:08:16.811Z,14.32
2022-09-25T22:11:00.789Z,14.30
2022-09-25T22:13:35.709Z,14.35
2022-09-25T22:16:17.376Z,14.31
2022-09-25T22:18:57.839Z,14.30
2022-09-25T22:21:35.254Z,14.20
2022-09-25T22:24:08.374Z,14.21
2022-09-25T22:26:43.176Z,14.21
2022-09-25T22:29:17.196Z,14.29
2022-09-25T22:31:50.704Z,14.26
2022-09-25T22:34:31.541Z,14.32
2022-09-25T22:37:04.586Z,14.34
2022-09-25T22:39:37.302Z,14.35
2022-09-25T22:42:09.891Z,14.35
2022-09-25T22:44:42.478Z,14.33
2022-09-25T22:47:15.277Z,14.26
2022-09-25T22:49:48.051Z,14.25
2022-09-25T22:52:20.824Z,14.30
2022-09-25T22:54:53.652Z,14.29
2022-09-25T22:57:26.487Z,14.29
2022-09-25T22:59:59.227Z,14.32
2022-09-25T23:02:32.217Z,14.34
2022-09-25T23:05:06.718Z,14.37
2022-09-25T23:07:40.053Z,14.38
2022-09-25T23:10:13.332Z,14.39
2022-09-25T23:12:46.922Z,14.36
2022-09-25T23:15:20.324Z,14.42
2022-09-25T23:17:52.973Z,14.41
2022-09-25T23:20:26.211Z,14.41
2022-09-25T23:22:59.106Z,14.40
2022-09-25T23:25:34.696Z,14.33
2022-09-25T23:28:07.512Z,14.36
2022-09-25T23:30:40.660Z,14.36
2022-09-25T23:33:14.231Z,14.35
2022-09-25T23:35:46.806Z,14.27
2022-09-25T23:38:19.417Z,14.32
2022-09-25T23:40:52.189Z,14.24
2022-09-25T23:43:25.147Z,14.23
2022-09-25T23:45:57.710Z,14.30
2022-09-25T23:48:30.515Z,14.30
2022-09-25T23:51:03.353Z,14.28
2022-09-25T23:53:36.324Z,14.27
2022-09-25T23:56:14.169Z,14.25
2022-09-25T23:58:47.439Z,14.27
